Time;durP1;ratioP1;P1;durP2;ratioP2;P2;SDS_P1;SDS_P2;PMS_P1;PMS_P2;Temp;Humidity;BMP_temperature;BMP_pressure;BME280_temperature;BME280_humidity;BME280_pressure;Samples;Min_cycle;Max_cycle;Signal;HPM_P1;HPM_P2
2021/12/09 00:00:16;;;;;;;19.63;6.95;;;;;;;;;;5072202;28;20036;-82
2021/12/09 00:02:42;;;;;;;13.07;7.28;;;;;;;;;;5064244;28;20340;-82
2021/12/09 00:05:13;;;;;;;17.25;8.57;;;;;;;;;;5084487;28;20352;-82
2021/12/09 00:07:42;;;;;;;15.05;6.95;;;;;;;;;;5062492;28;20341;-82
2021/12/09 00:10:09;;;;;;;10.88;6.50;;;;;;;;;;5083122;28;20027;-82
2021/12/09 00:12:35;;;;;;;12.30;6.40;;;;;;;;;;5081019;28;20044;-82
2021/12/09 00:15:01;;;;;;;8.80;5.68;;;;;;;;;;5091447;28;20174;-82
2021/12/09 00:17:27;;;;;;;12.85;6.63;;;;;;;;;;5084342;28;20032;-82
2021/12/09 00:19:54;;;;;;;11.90;6.70;;;;;;;;;;5080597;28;20031;-81
2021/12/09 00:22:21;;;;;;;9.55;6.25;;;;;;;;;;5075517;28;20044;-82
2021/12/09 00:24:47;;;;;;;7.07;4.43;;;;;;;;;;5080030;28;20173;-80
2021/12/09 00:27:13;;;;;;;13.32;6.90;;;;;;;;;;5079293;28;20266;-82
2021/12/09 00:29:39;;;;;;;9.75;5.80;;;;;;;;;;5058008;28;20471;-82
2021/12/09 00:32:06;;;;;;;11.40;5.85;;;;;;;;;;5083992;28;20035;-81
2021/12/09 00:34:35;;;;;;;11.98;7.07;;;;;;;;;;5082549;28;20024;-82
2021/12/09 00:37:15;;;;;;;13.57;7.38;;;;;;;;;;5084770;28;20036;-82
2021/12/09 00:39:43;;;;;;;18.85;6.63;;;;;;;;;;5079009;28;20048;-81
2021/12/09 00:42:10;;;;;;;16.48;8.73;;;;;;;;;;5059177;28;20036;-81
2021/12/09 00:44:36;;;;;;;13.10;6.80;;;;;;;;;;5091806;28;20032;-82
2021/12/09 00:47:03;;;;;;;9.75;6.38;;;;;;;;;;5064558;28;20280;-83
2021/12/09 00:49:30;;;;;;;11.30;7.45;;;;;;;;;;5076247;28;20051;-83
2021/12/09 00:52:00;;;;;;;13.00;7.28;;;;;;;;;;5065379;28;20063;-82
2021/12/09 00:54:27;;;;;;;14.10;6.65;;;;;;;;;;5091143;28;20039;-82
2021/12/09 00:56:53;;;;;;;11.18;6.82;;;;;;;;;;5085418;28;20200;-81
2021/12/09 00:59:19;;;;;;;12.60;7.63;;;;;;;;;;5074955;28;20318;-82
2021/12/09 01:01:46;;;;;;;15.50;7.85;;;;;;;;;;5065248;28;20043;-78
2021/12/09 01:04:12;;;;;;;14.18;6.90;;;;;;;;;;5085958;28;20099;-82
2021/12/09 01:06:38;;;;;;;14.07;8.65;;;;;;;;;;5076525;28;20181;-82
2021/12/09 01:09:05;;;;;;;17.67;8.23;;;1.70;99.90;;;;;;5074673;28;20086;-84
2021/12/09 01:11:31;;;;;;;11.00;6.28;;;;;;;;;;5088523;28;20089;-83
2021/12/09 01:13:58;;;;;;;11.70;7.53;;;;;;;;;;5072453;28;20022;-83
2021/12/09 01:16:24;;;;;;;11.75;6.43;;;;;;;;;;5082384;28;20053;-81
2021/12/09 01:18:50;;;;;;;11.15;7.13;;;;;;;;;;5081129;28;20175;-83
2021/12/09 01:21:16;;;;;;;12.63;7.82;;;;;;;;;;5076464;28;21508;-78
2021/12/09 01:23:43;;;;;;;14.02;7.63;;;;;;;;;;5082959;28;20029;-82
2021/12/09 01:26:10;;;;;;;14.70;8.07;;;1.60;99.90;;;;;;5082369;28;20042;-83
2021/12/09 01:28:49;;;;;;;11.70;7.57;;;;;;;;;;5085598;28;20269;-81
2021/12/09 01:31:24;;;;;;;16.15;8.05;;;;;;;;;;5084871;28;20266;-77
2021/12/09 01:33:52;;;;;;;;;;;;;;;;;;5077880;28;20054;-83
2021/12/09 01:36:18;;;;;;;17.42;9.43;;;;;;;;;;5080953;28;19916;-81
2021/12/09 01:38:45;;;;;;;21.27;8.63;;;;;;;;;;5091404;28;20367;-81
2021/12/09 01:41:11;;;;;;;13.85;8.25;;;;;;;;;;5078697;28;20199;-82
2021/12/09 01:43:38;;;;;;;19.42;8.75;;;;;;;;;;5088728;28;20051;-83
2021/12/09 01:46:06;;;;;;;11.60;7.70;;;;;;;;;;5087392;28;20051;-82
2021/12/09 01:48:32;;;;;;;13.02;8.02;;;;;;;;;;5065541;28;20219;-82
2021/12/09 01:50:59;;;;;;;18.42;8.38;;;;;;;;;;5084481;28;20028;-82
2021/12/09 01:53:25;;;;;;;14.68;8.77;;;;;;;;;;5073925;28;20028;-83
2021/12/09 01:55:52;;;;;;;16.27;9.23;;;;;;;;;;5079008;28;20303;-81
2021/12/09 01:58:18;;;;;;;15.93;8.50;;;;;;;;;;5088866;28;20028;-82
2021/12/09 02:00:44;;;;;;;16.40;9.35;;;;;;;;;;5062235;28;20031;-82
2021/12/09 02:03:10;;;;;;;13.38;7.22;;;;;;;;;;5064845;28;20095;-83
2021/12/09 02:05:40;;;;;;;13.95;9.00;;;;;;;;;;5087470;28;20082;-82
2021/12/09 02:08:08;;;;;;;16.35;8.68;;;1.60;99.90;;;;;;5080511;28;20276;-81
2021/12/09 02:10:34;;;;;;;16.05;9.50;;;;;;;;;;5069109;28;20028;-82
2021/12/09 02:13:01;;;;;;;16.20;9.77;;;;;;;;;;5079168;28;20031;-81
2021/12/09 02:15:27;;;;;;;14.95;8.25;;;;;;;;;;5090842;28;20293;-78
2021/12/09 02:17:55;;;;;;;15.88;9.60;;;;;;;;;;5089218;28;20091;-80
2021/12/09 02:20:21;;;;;;;15.43;9.15;;;;;;;;;;5079488;28;20269;-81
2021/12/09 02:22:48;;;;;;;18.83;10.15;;;;;;;;;;5089560;28;20262;-82
2021/12/09 02:25:15;;;;;;;15.68;9.35;;;;;;;;;;5067328;28;20035;-82
2021/12/09 02:27:42;;;;;;;16.30;8.10;;;;;;;;;;5085061;28;20060;-81
2021/12/09 02:30:09;;;;;;;17.70;7.90;;;;;;;;;;5085454;28;20277;-82
2021/12/09 02:32:36;;;;;;;14.57;7.75;;;;;;;;;;5088151;28;20344;-82
2021/12/09 02:35:02;;;;;;;13.23;6.85;;;1.30;99.90;;;;;;5088020;28;20312;-80
2021/12/09 02:37:28;;;;;;;15.88;8.90;;;;;;;;;;5066813;28;20044;-80
2021/12/09 02:39:56;;;;;;;14.95;8.45;;;;;;;;;;5074080;28;20016;-82
2021/12/09 02:42:24;;;;;;;17.58;8.70;;;;;;;;;;5069894;28;20065;-80
2021/12/09 02:44:51;;;;;;;12.75;8.68;;;;;;;;;;5075110;28;20039;-81
2021/12/09 02:47:18;;;;;;;17.98;9.88;;;;;;;;;;5081632;28;20025;-77
2021/12/09 02:49:44;;;;;;;16.98;9.25;;;;;;;;;;5070584;28;20565;-82
2021/12/09 02:52:11;;;;;;;19.33;11.43;;;;;;;;;;5077081;28;20198;-81
2021/12/09 02:54:37;;;;;;;17.15;10.35;;;;;;;;;;5075669;28;20053;-82
2021/12/09 02:57:05;;;;;;;23.27;13.52;;;;;;;;;;5081575;28;20044;-81
2021/12/09 02:59:32;;;;;;;23.52;12.13;;;;;;;;;;5091198;28;20055;-80
2021/12/09 03:02:00;;;;;;;17.95;11.32;;;1.50;99.90;;;;;;5094297;28;20028;-82
2021/12/09 03:04:27;;;;;;;26.27;15.00;;;;;;;;;;5082854;28;20096;-82
2021/12/09 03:06:55;;;;;;;21.08;12.82;;;;;;;;;;5083599;28;20163;-82
2021/12/09 03:09:22;;;;;;;16.08;11.27;;;;;;;;;;5084711;28;20039;-81
2021/12/09 03:11:54;;;;;;;19.92;11.27;;;;;;;;;;5076405;28;20031;-82
2021/12/09 03:14:21;;;;;;;18.08;10.82;;;;;;;;;;5081387;28;20285;-84
2021/12/09 03:16:47;;;;;;;16.90;10.18;;;;;;;;;;5085068;28;20082;-82
2021/12/09 03:19:13;;;;;;;17.42;10.60;;;1.40;99.90;;;;;;5092683;28;20032;-82
2021/12/09 03:21:41;;;;;;;16.02;9.73;;;;;;;;;;5084111;28;20030;-82
2021/12/09 03:24:09;;;;;;;22.83;11.00;;;;;;;;;;5079335;28;20020;-82
2021/12/09 03:26:39;;;;;;;20.10;10.68;;;;;;;;;;5073501;28;20024;-82
2021/12/09 03:29:07;;;;;;;18.65;10.70;;;;;;;;;;5085782;28;20212;-82
2021/12/09 03:31:36;;;;;;;22.88;11.68;;;1.30;99.90;;;;;;5070206;28;20020;-83
2021/12/09 03:34:03;;;;;;;19.65;11.35;;;;;;;;;;5087021;28;20150;-83
2021/12/09 03:36:29;;;;;;;21.33;12.02;;;;;;;;;;5091481;28;20407;-83
2021/12/09 03:39:03;;;;;;;17.60;10.30;;;1.40;99.90;;;;;;5094349;28;20070;-84
2021/12/09 03:41:29;;;;;;;19.65;14.43;;;;;;;;;;5096834;28;20218;-84
2021/12/09 03:43:55;;;;;;;21.40;12.27;;;;;;;;;;5091140;28;20039;-83
2021/12/09 03:46:21;;;;;;;21.30;11.95;;;;;;;;;;5087258;28;20237;-83
2021/12/09 03:48:48;;;;;;;20.00;10.82;;;;;;;;;;5087288;28;20074;-84
2021/12/09 03:51:14;;;;;;;23.65;12.20;;;1.40;99.90;;;;;;5071857;28;20033;-83
2021/12/09 03:53:40;;;;;;;22.05;11.38;;;;;;;;;;5077549;28;20071;-83
2021/12/09 03:56:06;;;;;;;22.58;12.23;;;;;;;;;;5065884;28;20087;-83
2021/12/09 03:58:32;;;;;;;16.42;10.88;;;;;;;;;;5072169;28;20027;-83
2021/12/09 04:00:58;;;;;;;22.13;11.85;;;;;;;;;;5073519;28;20044;-77
2021/12/09 04:03:25;;;;;;;22.30;11.65;;;;;;;;;;5095118;28;20333;-82
2021/12/09 04:05:51;;;;;;;23.88;11.35;;;;;;;;;;5071550;28;20078;-82
2021/12/09 04:08:20;;;;;;;17.67;10.63;;;;;;;;;;5089027;28;20047;-84
2021/12/09 04:10:46;;;;;;;18.13;11.05;;;;;;;;;;5068320;28;20020;-79
2021/12/09 04:13:12;;;;;;;22.13;13.00;;;;;;;;;;5075331;28;20266;-85
2021/12/09 04:15:38;;;;;;;25.33;10.77;;;;;;;;;;5077413;28;20031;-83
2021/12/09 04:18:04;;;;;;;18.88;11.10;;;;;;;;;;5082901;28;22313;-83
2021/12/09 04:20:31;;;;;;;17.70;11.02;;;1.20;99.90;;;;;;5104212;28;20036;-83
2021/12/09 04:22:57;;;;;;;18.38;12.57;;;;;;;;;;5089983;28;20029;-81
2021/12/09 04:25:24;;;;;;;20.75;11.38;;;;;;;;;;5088213;28;20020;-82
2021/12/09 04:27:53;;;;;;;18.95;9.70;;;1.20;99.90;;;;;;5066220;28;20029;-82
2021/12/09 04:30:19;;;;;;;22.92;12.95;;;;;;;;;;5072499;28;20043;-83
2021/12/09 04:32:46;;;;;;;18.20;11.38;;;;;;;;;;5080552;28;20032;-81
2021/12/09 04:35:13;;;;;;;16.50;10.48;;;;;;;;;;5072637;28;20078;-81
2021/12/09 04:37:40;;;;;;;16.25;10.23;;;;;;;;;;5089306;28;20052;-82
2021/12/09 04:40:09;;;;;;;23.05;12.00;;;;;;;;;;5095151;28;20174;-82
2021/12/09 04:42:35;;;;;;;23.15;11.30;;;;;;;;;;5092719;28;20021;-83
2021/12/09 04:45:01;;;;;;;15.85;10.82;;;;;;;;;;5090292;28;20167;-82
2021/12/09 04:47:27;;;;;;;21.50;12.15;;;;;;;;;;5082787;28;20069;-81
2021/12/09 04:49:54;;;;;;;17.70;11.23;;;;;;;;;;5078338;28;20055;-81
2021/12/09 04:52:20;;;;;;;21.83;11.02;;;;;;;;;;5081647;28;20304;-82
2021/12/09 04:54:46;;;;;;;21.00;11.60;;;;;;;;;;5079631;28;20052;-82
2021/12/09 04:57:13;;;;;;;20.77;12.23;;;1.10;99.90;;;;;;5090029;28;20036;-82
2021/12/09 04:59:40;;;;;;;17.70;11.02;;;;;;;;;;5088835;28;20055;-82
2021/12/09 05:02:16;;;;;;;21.38;12.68;;;;;;;;;;5068678;28;20024;-80
2021/12/09 05:04:42;;;;;;;21.98;11.98;;;1.10;99.90;;;;;;5070949;28;20155;-82
2021/12/09 05:07:08;;;;;;;22.33;11.90;;;;;;;;;;5089733;28;20028;-82
2021/12/09 05:09:38;;;;;;;21.38;12.63;;;;;;;;;;5068684;28;20038;-81
2021/12/09 05:12:05;;;;;;;18.55;11.73;;;;;;;;;;5086430;28;20047;-83
2021/12/09 05:14:32;;;;;;;17.85;11.95;;;;;;;;;;5095512;28;20108;-84
2021/12/09 05:16:59;;;;;;;20.15;11.35;;;;;;;;;;5084702;28;20983;-83
2021/12/09 05:19:26;;;;;;;20.85;11.32;;;;;;;;;;5079341;28;20060;-82
2021/12/09 05:21:54;;;;;;;19.50;12.02;;;;;;;;;;5086751;28;20207;-83
2021/12/09 05:24:20;;;;;;;16.65;10.93;;;;;;;;;;5079962;28;20036;-82
2021/12/09 05:26:51;;;;;;;22.30;11.10;;;1.10;99.90;;;;;;5071217;28;20047;-83
2021/12/09 05:29:17;;;;;;;23.77;13.18;;;;;;;;;;5087289;28;20113;-82
2021/12/09 05:34:30;;;;;;;23.05;12.73;;;1.10;99.90;;;;;;5094085;28;20028;-78
2021/12/09 05:36:56;;;;;;;24.20;11.52;;;;;;;;;;5087306;28;20303;-83
2021/12/09 05:39:23;;;;;;;16.95;10.27;;;1.10;99.90;;;;;;5085355;28;20048;-83
2021/12/09 05:41:49;;;;;;;16.42;10.50;;;;;;;;;;5071819;28;20048;-80
2021/12/09 05:44:16;;;;;;;18.67;12.23;;;;;;;;;;5077987;28;20028;-82
2021/12/09 05:46:45;;;;;;;21.48;12.45;;;1.00;99.90;;;;;;5067079;28;20154;-81
2021/12/09 05:49:12;;;;;;;22.45;11.38;;;;;;;;;;5070702;28;20304;-81
2021/12/09 05:51:41;;;;;;;18.40;9.68;;;1.10;99.90;;;;;;5087554;28;20070;-82
2021/12/09 05:54:08;;;;;;;23.85;12.35;;;;;;;;;;5067913;28;20040;-82
2021/12/09 05:56:34;;;;;;;27.05;10.93;;;1.20;99.90;;;;;;5086657;28;20302;-82
2021/12/09 05:59:01;;;;;;;26.40;10.27;;;;;;;;;;5068049;28;20503;-81
2021/12/09 06:01:27;;;;;;;18.98;11.27;;;;;;;;;;5071473;28;20032;-82
2021/12/09 06:03:54;;;;;;;18.95;10.85;;;;;;;;;;5093454;28;20261;-83
2021/12/09 06:06:20;;;;;;;16.52;10.30;;;;;;;;;;5084228;28;20950;-83
2021/12/09 06:08:46;;;;;;;20.60;12.05;;;;;;;;;;5080873;28;20025;-82
2021/12/09 06:11:13;;;;;;;18.67;12.15;;;;;;;;;;5088915;28;20024;-82
2021/12/09 06:13:40;;;;;;;20.65;12.80;;;1.20;99.90;;;;;;5074692;28;20041;-82
2021/12/09 06:16:07;;;;;;;19.95;12.32;;;;;;;;;;5090935;28;20032;-78
2021/12/09 06:18:33;;;;;;;21.40;11.50;;;;;;;;;;5097776;28;20108;-82
2021/12/09 06:20:59;;;;;;;18.73;10.18;;;;;;;;;;5093107;28;20107;-81
2021/12/09 06:23:25;;;;;;;16.67;9.80;;;;;;;;;;5081500;28;20056;-82
2021/12/09 06:25:51;;;;;;;21.65;9.63;;;;;;;;;;5083595;28;20471;-82
2021/12/09 06:28:18;;;;;;;23.38;11.20;;;;;;;;;;5066678;28;20051;-81
2021/12/09 06:30:45;;;;;;;12.93;8.77;;;;;;;;;;5095077;28;20207;-81
2021/12/09 06:33:11;;;;;;;16.92;8.85;;;;;;;;;;5089180;28;20059;-81
2021/12/09 06:35:38;;;;;;;16.98;10.18;;;;;;;;;;5071228;28;20036;-80
2021/12/09 06:38:05;;;;;;;15.48;9.50;;;;;;;;;;5075361;28;20037;-77
2021/12/09 06:40:31;;;;;;;18.25;9.50;;;;;;;;;;5094681;28;20039;-80
2021/12/09 06:42:58;;;;;;;17.77;9.90;;;;;;;;;;5090334;28;20027;-83
2021/12/09 06:45:24;;;;;;;18.23;10.52;;;;;;;;;;5084783;28;20036;-82
2021/12/09 06:47:51;;;;;;;27.95;12.45;;;;;;;;;;5089345;28;20048;-81
2021/12/09 06:50:18;;;;;;;20.35;12.15;;;;;;;;;;5065858;28;20112;-79
2021/12/09 06:52:45;;;;;;;21.52;9.82;;;;;;;;;;5088233;28;20234;-81
2021/12/09 06:55:12;;;;;;;20.30;9.95;;;;;;;;;;5091369;28;20236;-81
2021/12/09 06:57:39;;;;;;;22.45;9.88;;;;;;;;;;5080633;28;20308;-84
2021/12/09 07:00:07;;;;;;;17.73;9.55;;;;;;;;;;5079626;28;20119;-83
2021/12/09 07:02:33;;;;;;;18.88;9.55;;;;;;;;;;5071176;28;20039;-85
2021/12/09 07:04:59;;;;;;;17.75;10.07;;;;;;;;;;5081788;28;20123;-84
2021/12/09 07:07:25;;;;;;;22.52;9.57;;;;;;;;;;5083200;28;20103;-80
2021/12/09 07:09:51;;;;;;;18.55;10.25;;;;;;;;;;5065541;28;20028;-81
2021/12/09 07:12:18;;;;;;;13.77;8.60;;;;;;;;;;5078360;28;20040;-82
2021/12/09 07:14:44;;;;;;;15.98;8.77;;;;;;;;;;5063109;28;20029;-82
2021/12/09 07:17:11;;;;;;;16.55;10.05;;;;;;;;;;5078183;28;20049;-83
2021/12/09 07:19:38;;;;;;;17.73;8.63;;;;;;;;;;5068473;28;20092;-84
2021/12/09 07:22:04;;;;;;;20.85;10.80;;;;;;;;;;5064860;28;20304;-85
2021/12/09 07:24:31;;;;;;;16.80;8.75;;;0.90;99.90;;;;;;5071635;28;20040;-82
2021/12/09 07:26:58;;;;;;;14.57;8.57;;;;;;;;;;5085556;28;20032;-85
2021/12/09 07:29:25;;;;;;;19.58;10.05;;;;;;;;;;5068980;28;20035;-84
2021/12/09 07:31:51;;;;;;;15.65;8.85;;;;;;;;;;5084948;28;20195;-82
2021/12/09 07:34:21;;;;;;;15.88;9.60;;;;;;;;;;5081536;28;20040;-82
2021/12/09 07:36:47;;;;;;;15.45;8.73;;;;;;;;;;5095155;28;20059;-79
2021/12/09 07:39:13;;;;;;;15.27;10.75;;;;;;;;;;5100516;28;20028;-81
2021/12/09 07:41:39;;;;;;;14.82;8.10;;;;;;;;;;5082636;28;20062;-80
2021/12/09 07:44:05;;;;;;;17.60;10.10;;;;;;;;;;5074411;28;20032;-81
2021/12/09 07:46:35;;;;;;;11.57;8.65;;;;;;;;;;5067489;28;20281;-82
2021/12/09 07:49:02;;;;;;;20.88;8.52;;;;;;;;;;5060931;28;20060;-84
2021/12/09 07:51:29;;;;;;;19.83;11.52;;;;;;;;;;5075436;28;20015;-84
2021/12/09 07:53:55;;;;;;;21.60;8.80;;;;;;;;;;5078131;28;20048;-84
2021/12/09 07:56:21;;;;;;;14.45;7.97;;;;;;;;;;5069113;28;20162;-83
2021/12/09 07:58:47;;;;;;;13.63;8.15;;;;;;;;;;5077839;28;20036;-84
2021/12/09 08:01:13;;;;;;;16.50;9.40;;;;;;;;;;5086200;28;20036;-83
2021/12/09 08:03:39;;;;;;;14.35;7.50;;;;;;;;;;5093311;28;20039;-84
2021/12/09 08:06:05;;;;;;;13.70;8.15;;;;;;;;;;5080797;28;20060;-84
2021/12/09 08:08:31;;;;;;;12.68;7.75;;;;;;;;;;5088744;28;20268;-83
2021/12/09 08:10:58;;;;;;;17.50;8.60;;;;;;;;;;5089056;28;20037;-81
2021/12/09 08:13:24;;;;;;;14.65;7.60;;;;;;;;;;5072388;28;20074;-81
2021/12/09 08:15:53;;;;;;;14.75;7.57;;;;;;;;;;5084101;28;20189;-80
2021/12/09 08:20:45;;;;;;;14.52;7.70;;;;;;;;;;5086598;28;20028;-83
2021/12/09 08:23:12;;;;;;;15.32;7.75;;;;;;;;;;5081604;28;20025;-84
2021/12/09 08:25:38;;;;;;;18.05;8.32;;;;;;;;;;5075131;28;20043;-84
2021/12/09 08:28:04;;;;;;;14.50;7.88;;;;;;;;;;5077737;28;20270;-83
2021/12/09 08:30:31;;;;;;;17.55;8.10;;;;;;;;;;5069425;28;20067;-82
2021/12/09 08:32:57;;;;;;;13.65;7.68;;;1.40;99.90;;;;;;5100710;28;20207;-84
2021/12/09 08:35:24;;;;;;;18.55;7.97;;;;;;;;;;5086218;28;20025;-84
2021/12/09 08:37:51;;;;;;;21.98;8.25;;;;;;;;;;5085647;28;20098;-85
2021/12/09 08:40:18;;;;;;;17.33;8.05;;;;;;;;;;5072803;28;20154;-85
2021/12/09 08:42:44;;;;;;;13.38;7.22;;;;;;;;;;5077579;28;20035;-82
2021/12/09 08:45:11;;;;;;;15.23;6.90;;;;;;;;;;5089758;28;20044;-83
2021/12/09 08:47:41;;;;;;;26.33;8.35;;;1.50;99.90;;;;;;5074380;28;20301;-82
2021/12/09 08:50:09;;;;;;;16.55;8.38;;;;;;;;;;5095212;28;20112;-82
2021/12/09 08:52:35;;;;;;;15.90;7.50;;;;;;;;;;5061587;28;20071;-83
2021/12/09 08:55:01;;;;;;;15.00;7.38;;;;;;;;;;5080894;28;20081;-81
2021/12/09 08:57:28;;;;;;;14.68;7.28;;;;;;;;;;5067714;28;20051;-85
2021/12/09 08:59:54;;;;;;;15.88;7.18;;;;;;;;;;5070731;28;20089;-80
2021/12/09 09:02:21;;;;;;;15.40;8.65;;;;;;;;;;5068132;28;20233;-81
2021/12/09 09:04:47;;;;;;;17.85;8.35;;;;;;;;;;5091465;28;20028;-78
2021/12/09 09:07:13;;;;;;;13.70;6.53;;;;;;;;;;5080456;28;20036;-81
2021/12/09 09:09:40;;;;;;;12.68;7.13;;;;;;;;;;5089897;28;20150;-82
2021/12/09 09:12:09;;;;;;;15.52;5.90;;;;;;;;;;5084286;28;20300;-81
2021/12/09 09:14:35;;;;;;;14.40;5.78;;;;;;;;;;5081579;28;20106;-81
2021/12/09 09:17:01;;;;;;;11.55;6.35;;;;;;;;;;5065525;28;20047;-82
2021/12/09 09:19:27;;;;;;;15.80;6.50;;;;;;;;;;5081316;28;20054;-82
2021/12/09 09:21:54;;;;;;;9.80;6.22;;;;;;;;;;5086271;28;20046;-81
2021/12/09 09:24:20;;;;;;;10.88;5.30;;;;;;;;;;5090908;28;20020;-83
2021/12/09 09:26:47;;;;;;;13.57;7.18;;;;;;;;;;5080230;28;20039;-82
2021/12/09 09:29:13;;;;;;;10.05;5.68;;;;;;;;;;5085048;28;20073;-83
2021/12/09 09:31:40;;;;;;;11.45;6.03;;;;;;;;;;5083586;28;20276;-84
2021/12/09 09:34:07;;;;;;;11.23;6.35;;;;;;;;;;5077576;28;20067;-84
2021/12/09 09:36:39;;;;;;;11.10;5.03;;;;;;;;;;5079472;28;20202;-83
2021/12/09 09:39:17;;;;;;;13.48;5.97;;;;;;;;;;5085925;28;20040;-83
2021/12/09 09:41:45;;;;;;;10.30;4.90;;;;;;;;;;5079361;28;20316;-82
2021/12/09 09:44:17;;;;;;;14.73;5.95;;;;;;;;;;5082495;28;20090;-84
2021/12/09 09:46:44;;;;;;;10.48;5.70;;;;;;;;;;5092920;28;20020;-83
2021/12/09 09:49:10;;;;;;;14.27;5.22;;;;;;;;;;5079269;28;20115;-85
2021/12/09 09:51:38;;;;;;;16.15;5.90;;;;;;;;;;5098089;28;20277;-84
2021/12/09 09:54:05;;;;;;;14.68;5.60;;;;;;;;;;5087558;28;20099;-85
2021/12/09 09:56:34;;;;;;;12.18;4.63;;;3.80;99.90;;;;;;5090157;28;20282;-85
2021/12/09 09:59:05;;;;;;;12.38;5.82;;;;;;;;;;5082447;28;20086;-84
2021/12/09 10:01:33;;;;;;;10.32;5.15;;;;;;;;;;5077731;28;20117;-85
2021/12/09 10:04:10;;;;;;;11.18;5.38;;;;;;;;;;5091672;28;20059;-84
2021/12/09 10:06:37;;;;;;;15.18;5.80;;;;;;;;;;5085879;28;20036;-85
2021/12/09 10:09:07;;;;;;;11.73;5.40;;;;;;;;;;5092871;28;20761;-85
2021/12/09 10:11:34;;;;;;;7.78;5.70;;;;;;;;;;5077885;28;20046;-83
2021/12/09 10:14:11;;;;;;;14.27;7.03;;;;;;;;;;5075864;28;20040;-86
2021/12/09 10:16:38;;;;;;;14.07;7.10;;;;;;;;;;5076567;28;20241;-85
2021/12/09 10:19:15;;;;;;;9.80;6.30;;;;;;;;;;5084385;28;20269;-86
2021/12/09 10:21:42;;;;;;;11.85;5.72;;;;;;;;;;5088933;28;20308;-85
2021/12/09 10:24:08;;;;;;;16.10;8.02;;;;;;;;;;5094135;28;20085;-85
2021/12/09 10:26:37;;;;;;;15.15;7.55;;;;;;;;;;5082124;28;20033;-85
2021/12/09 10:29:08;;;;;;;13.80;6.13;;;;;;;;;;5095817;28;20202;-83
2021/12/09 10:31:39;;;;;;;24.63;10.07;;;;;;;;;;5071029;28;20040;-85
2021/12/09 10:34:11;;;;;;;18.63;9.88;;;;;;;;;;5077964;28;20028;-84
2021/12/09 10:36:48;;;;;;;18.35;9.27;;;;;;;;;;5064524;28;20032;-84
2021/12/09 10:39:19;;;;;;;18.25;10.02;;;;;;;;;;5079098;28;20041;-85
2021/12/09 10:41:46;;;;;;;15.13;7.55;;;;;;;;;;5086035;28;20099;-85
2021/12/09 10:44:12;;;;;;;16.45;8.25;;;;;;;;;;5087032;28;20353;-85
2021/12/09 10:47:03;;;;;;;22.25;8.90;;;;;;;;;;5093284;28;20260;-82
2021/12/09 10:49:35;;;;;;;16.60;7.38;;;;;;;;;;5085345;28;20071;-81
2021/12/09 10:52:19;;;;;;;15.65;8.25;;;;;;;;;;5062624;28;20957;-82
2021/12/09 10:54:46;;;;;;;21.40;9.60;;;;;;;;;;5071108;28;20095;-82
2021/12/09 10:57:26;;;;;;;15.27;8.35;;;;;;;;;;5063831;22;20045;-92
2021/12/09 10:59:53;;;;;;;14.82;8.05;;;;;;;;;;5007215;28;20071;-93
2021/12/09 11:02:19;;;;;;;15.55;7.22;;;;;;;;;;5006879;28;20048;-89
2021/12/09 11:05:01;;;;;;;22.73;9.15;;;;;;;;;;5008099;28;20115;-92
2021/12/09 11:07:31;;;;;;;19.17;8.38;;;;;;;;;;5002138;28;20061;-93
2021/12/09 11:10:16;;;;;;;15.40;9.07;;;;;;;;;;5008043;28;20128;-95
2021/12/09 11:12:53;;;;;;;19.25;8.52;;;;;;;;;;5005164;28;20041;-93
2021/12/09 11:15:25;;;;;;;16.48;9.88;;;;;;;;;;5004259;28;20038;-94
2021/12/09 11:17:53;;;;;;;18.98;9.57;;;;;;;;;;5004818;28;20042;-93
2021/12/09 11:20:38;;;;;;;21.70;10.65;;;;;;;;;;5004260;28;20033;-94
2021/12/09 11:23:25;;;;;;;21.70;10.32;;;;;;;;;;5002632;28;20097;-92
2021/12/09 11:25:52;;;;;;;22.05;11.57;;;;;;;;;;5007994;28;20034;-91
2021/12/09 11:28:18;;;;;;;18.58;9.38;;;;;;;;;;5007479;28;20046;-93
2021/12/09 11:31:06;;;;;;;25.85;11.50;;;;;;;;;;5021214;28;20097;-95
2021/12/09 11:33:37;;;;;;;21.98;11.93;;;;;;;;;;5005339;28;20124;-92
2021/12/09 11:36:04;;;;;;;21.05;12.23;;;;;;;;;;5014822;28;20048;-93
2021/12/09 11:39:06;;;;;;;26.08;13.45;;;;;;;;;;5021449;28;20587;-95
2021/12/09 11:41:35;;;;;;;27.35;12.25;;;;;;;;;;5011084;28;20128;-92
2021/12/09 11:44:02;;;;;;;24.02;12.38;;;;;;;;;;5024248;28;20544;-92
2021/12/09 11:46:28;;;;;;;22.35;11.48;;;;;;;;;;5026497;28;20022;-93
2021/12/09 11:48:57;;;;;;;27.23;13.75;;;;;;;;;;5104635;22;20045;-94
2021/12/09 11:51:25;;;;;;;23.33;12.00;;;;;;;;;;5024623;28;20041;-95
2021/12/09 11:53:55;;;;;;;21.23;11.68;;;;;;;;;;5022080;28;20067;-94
2021/12/09 11:56:39;;;;;;;25.45;13.02;;;;;;;;;;5036413;28;20044;-94
2021/12/09 12:11:19;;;;;;;24.77;11.52;;;;;;;;;;5037308;28;20259;-93
2021/12/09 12:13:57;;;;;;;24.33;12.93;;;;;;;;;;5014970;28;20064;-92
2021/12/09 12:16:44;;;;;;;23.63;13.13;;;;;;;;;;5029625;28;20346;-91
2021/12/09 12:19:34;;;;;;;26.58;13.85;;;;;;;;;;5022393;28;20037;-91
2021/12/09 12:22:24;;;;;;;22.48;12.32;;;;;;;;;;5021248;28;20041;-93
2021/12/09 12:27:43;;;;;;;28.25;15.20;;;;;;;;;;5030968;28;20067;-92
2021/12/09 12:30:43;;;;;;;24.73;12.80;;;;;;;;;;5017141;28;20110;-91
2021/12/09 12:33:50;;;;;;;23.77;12.77;;;;;;;;;;5017303;28;20038;-92
2021/12/09 12:36:19;;;;;;;26.05;13.93;;;;;;;;;;5027559;28;20083;-92
2021/12/09 12:39:04;;;;;;;31.63;14.27;;;;;;;;;;5013158;28;20036;-90
2021/12/09 12:41:32;;;;;;;31.50;17.67;;;;;;;;;;5034384;28;20045;-92
2021/12/09 12:44:04;;;;;;;25.95;12.35;;;;;;;;;;5015698;28;20033;-91
2021/12/09 12:47:15;;;;;;;22.08;13.20;;;;;;;;;;5018847;28;20041;-93
2021/12/09 12:49:47;;;;;;;25.48;12.38;;;;;;;;;;5017510;28;20056;-92
2021/12/09 12:52:25;;;;;;;28.20;12.95;;;;;;;;;;5017771;28;20050;-91
2021/12/09 12:55:11;;;;;;;28.48;15.27;;;;;;;;;;5019145;28;20044;-90
2021/12/09 12:57:43;;;;;;;26.88;13.63;;;;;;;;;;5018273;28;20095;-93
2021/12/09 13:00:23;;;;;;;30.70;15.70;;;;;;;;;;5015761;28;20041;-93
2021/12/09 13:03:11;;;;;;;24.25;12.45;;;;;;;;;;5014623;28;20041;-91
2021/12/09 13:05:51;;;;;;;27.98;13.70;;;;;;;;;;5013576;28;20232;-94
2021/12/09 13:08:42;;;;;;;24.83;13.07;;;;;;;;;;5037427;28;20069;-93
2021/12/09 13:11:16;;;;;;;28.08;14.45;;;;;;;;;;5020720;28;20084;-93
2021/12/09 13:13:53;;;;;;;25.67;14.55;;;;;;;;;;5020152;28;20068;-91
2021/12/09 13:16:39;;;;;;;31.13;13.68;;;;;;;;;;5019063;28;20045;-91
2021/12/09 13:21:37;;;;;;;22.48;15.05;;;;;;;;;;5032790;28;20045;-93
2021/12/09 13:24:23;;;;;;;31.00;15.10;;;;;;;;;;5010883;28;20051;-94
2021/12/09 13:27:32;;;;;;;23.90;13.07;;;;;;;;;;5035783;28;20041;-92
2021/12/09 13:35:47;;;;;;;28.75;14.10;;;;;;;;;;5036307;28;20038;-93
2021/12/09 13:47:06;;;;;;;33.97;15.10;;;;;;;;;;5032389;28;20044;-94
2021/12/09 13:49:39;;;;;;;30.55;14.20;;;;;;;;;;5033767;28;20069;-92
2021/12/09 13:55:07;;;;;;;30.73;15.48;;;;;;;;;;5020689;28;20030;-92
2021/12/09 13:57:33;;;;;;;30.20;14.18;;;;;;;;;;5017488;28;20955;-93
2021/12/09 13:59:59;;;;;;;26.50;13.23;;;;;;;;;;5016331;28;20339;-93
2021/12/09 14:02:26;;;;;;;26.65;13.30;;;;;;;;;;5029886;28;20037;-91
2021/12/09 14:04:55;;;;;;;31.00;13.80;;;;;;;;;;5017324;28;20041;-93
2021/12/09 14:07:29;;;;;;;25.13;12.00;;;;;;;;;;5013354;28;20044;-92
2021/12/09 14:10:17;;;;;;;30.23;12.98;;;;;;;;;;5017855;28;20390;-93
2021/12/09 14:12:51;;;;;;;26.10;14.38;;;;;;;;;;5038080;28;20133;-93
2021/12/09 14:15:23;;;;;;;35.15;14.10;;;;;;;;;;5012317;28;20319;-92
2021/12/09 14:18:06;;;;;;;33.40;15.98;;;;;;;;;;5012376;28;20071;-92
2021/12/09 14:20:33;;;;;;;26.50;15.10;;;;;;;;;;5022201;28;20473;-93
2021/12/09 14:23:03;;;;;;;30.30;16.52;;;;;;;;;;5008129;28;20038;-93
2021/12/09 14:25:33;;;;;;;32.53;17.10;;;;;;;;;;5025242;28;20045;-95
2021/12/09 14:27:59;;;;;;;30.05;15.43;;;;;;;;;;5020675;28;20045;-91
2021/12/09 14:30:30;;;;;;;32.85;15.63;;;;;;;;;;5019390;28;20033;-90
2021/12/09 14:32:58;;;;;;;23.38;13.93;;;;;;;;;;5007823;28;20037;-93
2021/12/09 14:35:30;;;;;;;29.83;15.90;;;;;;;;;;5012264;28;20119;-93
2021/12/09 14:37:59;;;;;;;23.98;15.13;;;;;;;;;;5004930;28;20187;-93
2021/12/09 14:40:34;;;;;;;27.67;12.63;;;;;;;;;;5009750;28;20052;-91
2021/12/09 14:43:01;;;;;;;30.95;14.23;;;;;;;;;;5012997;28;20029;-91
2021/12/09 14:45:29;;;;;;;29.90;14.82;;;;;;;;;;5017192;28;20343;-93
2021/12/09 14:48:01;;;;;;;27.67;15.48;;;;;;;;;;5013487;28;20140;-92
2021/12/09 14:50:33;;;;;;;24.75;12.00;;;;;;;;;;4993596;28;20061;-93
2021/12/09 14:53:00;;;;;;;27.20;14.75;;;;;;;;;;5007435;28;20045;-92
2021/12/09 14:55:29;;;;;;;27.15;13.23;;;;;;;;;;5011335;28;20045;-92
2021/12/09 14:57:55;;;;;;;29.63;14.32;;;;;;;;;;5014360;28;20048;-92
2021/12/09 15:00:33;;;;;;;27.17;12.57;;;;;;;;;;5016091;28;20333;-94
2021/12/09 15:03:05;;;;;;;36.90;13.55;;;;;;;;;;5014517;28;20033;-91
2021/12/09 15:05:33;;;;;;;30.05;14.55;;;;;;;;;;5013617;28;20037;-91
2021/12/09 15:08:07;;;;;;;22.45;12.55;;;;;;;;;;5014050;28;20422;-92